createdAt,value
2024-05-09T00:00:18.442Z,101512.50
2024-05-09T00:05:19.056Z,101506.59
2024-05-09T00:10:18.214Z,101510.90
2024-05-09T00:15:18.061Z,101511.91
2024-05-09T00:20:17.593Z,101508.77
2024-05-09T00:25:16.660Z,101508.40
2024-05-09T00:30:14.375Z,101510.10
2024-05-09T00:35:10.290Z,101518.27
2024-05-09T00:40:03.550Z,101526.70
2024-05-09T00:44:56.238Z,101532.89
2024-05-09T00:49:49.141Z,101527.98
2024-05-09T00:54:41.986Z,101526.16
2024-05-09T00:59:34.959Z,101522.41
2024-05-09T01:04:27.558Z,101518.46
2024-05-09T01:09:20.260Z,101516.23
2024-05-09T01:14:12.983Z,101517.08
2024-05-09T01:19:19.841Z,101517.83
2024-05-09T01:24:13.070Z,101519.09
2024-05-09T01:29:05.682Z,101523.10
2024-05-09T01:33:58.350Z,101523.13
2024-05-09T01:38:51.006Z,101532.00
2024-05-09T01:43:43.817Z,101540.98
2024-05-09T01:48:36.657Z,101544.17
2024-05-09T01:53:29.466Z,101548.69
2024-05-09T01:58:22.121Z,101546.40
2024-05-09T02:03:16.984Z,101545.17
2024-05-09T02:08:18.164Z,101541.98
2024-05-09T02:13:11.425Z,101532.75
2024-05-09T02:18:04.507Z,101530.82
2024-05-09T02:23:00.647Z,101528.89
2024-05-09T02:27:53.845Z,101533.05
2024-05-09T02:32:47.064Z,101535.95
2024-05-09T02:37:40.097Z,101535.28
2024-05-09T02:42:32.728Z,101538.52
2024-05-09T02:47:25.456Z,101536.70
2024-05-09T02:52:19.866Z,101535.10
2024-05-09T02:57:12.461Z,101535.42
2024-05-09T03:02:05.344Z,101531.60
2024-05-09T03:06:58.142Z,101535.91
2024-05-09T03:11:50.977Z,101540.08
2024-05-09T03:16:43.653Z,101541.95
2024-05-09T03:21:40.746Z,101541.02
2024-05-09T03:26:33.410Z,101537.50
2024-05-09T03:31:26.154Z,101540.98
2024-05-09T03:36:18.767Z,101539.88
2024-05-09T03:41:11.479Z,101548.61
2024-05-09T03:46:04.116Z,101551.65
2024-05-09T03:50:56.757Z,101553.71
2024-05-09T03:55:49.382Z,101553.94
2024-05-09T04:00:42.979Z,101550.91
2024-05-09T04:05:35.815Z,101553.38
2024-05-09T04:10:33.426Z,101546.56
2024-05-09T04:15:27.634Z,101544.18
2024-05-09T04:20:32.833Z,101544.96
2024-05-09T04:25:32.910Z,101544.34
2024-05-09T04:30:34.618Z,101541.38
2024-05-09T04:35:31.548Z,101543.58
2024-05-09T04:40:31.420Z,101544.81
2024-05-09T04:45:27.676Z,101545.78
2024-05-09T04:50:29.385Z,101547.27
2024-05-09T04:55:28.372Z,101552.21
2024-05-09T05:00:28.916Z,101552.92
2024-05-09T05:05:28.151Z,101554.14
2024-05-09T05:10:25.521Z,101550.30
2024-05-09T05:15:22.496Z,101550.02
2024-05-09T05:20:17.810Z,101554.01
2024-05-09T05:25:14.045Z,101554.17
2024-05-09T05:30:11.899Z,101561.16
2024-05-09T05:35:07.664Z,101555.45
2024-05-09T05:40:00.278Z,101550.48
2024-05-09T05:44:52.833Z,101548.44
2024-05-09T05:49:45.460Z,101552.69
2024-05-09T05:54:38.031Z,101553.86
2024-05-09T05:59:30.652Z,101545.14
2024-05-09T06:04:23.318Z,101545.36
2024-05-09T06:09:15.963Z,101547.96
2024-05-09T06:14:09.947Z,101543.66
2024-05-09T06:19:02.590Z,101541.04
2024-05-09T06:23:55.173Z,101534.58
2024-05-09T06:28:47.857Z,101524.04
2024-05-09T06:33:42.459Z,101521.17
2024-05-09T06:38:38.465Z,101524.81
2024-05-09T06:43:31.176Z,101529.67
2024-05-09T06:48:24.038Z,101527.83
2024-05-09T06:53:17.677Z,101525.14
2024-05-09T06:58:10.528Z,101522.95
2024-05-09T07:03:11.113Z,101518.38
2024-05-09T07:08:05.791Z,101518.42
2024-05-09T07:12:58.465Z,101514.32
2024-05-09T07:17:51.748Z,101510.69
2024-05-09T07:22:44.604Z,101514.41
2024-05-09T07:27:37.287Z,101511.77
2024-05-09T07:32:30.023Z,101504.88
2024-05-09T07:37:23.061Z,101500.36
2024-05-09T07:42:15.623Z,101490.52
2024-05-09T07:48:14.636Z,101488.59
2024-05-09T07:53:30.282Z,101482.88
2024-05-09T07:57:33.414Z,101482.95
2024-05-09T08:02:26.243Z,101485.56
2024-05-09T08:07:19.919Z,101489.47
2024-05-09T08:12:14.519Z,101496.81
2024-05-09T08:17:07.640Z,101495.85
2024-05-09T08:22:06.614Z,101494.73
2024-05-09T08:26:59.269Z,101489.13
2024-05-09T08:31:55.838Z,101489.42
2024-05-09T08:36:48.601Z,101485.32
2024-05-09T08:41:43.535Z,101476.84
2024-05-09T08:46:38.503Z,101478.93
2024-05-09T08:51:31.119Z,101479.48
2024-05-09T08:56:29.103Z,101477.70
2024-05-09T09:01:22.951Z,101473.80
2024-05-09T09:06:20.050Z,101467.49
2024-05-09T09:11:12.665Z,101463.06
2024-05-09T09:16:06.623Z,101455.79
2024-05-09T09:20:59.349Z,101462.17
2024-05-09T09:25:51.919Z,101466.63
2024-05-09T09:30:44.771Z,101463.17
2024-05-09T09:35:39.738Z,101463.84
2024-05-09T09:40:41.112Z,101461.27
2024-05-09T09:45:40.940Z,101458.09
2024-05-09T09:50:36.687Z,101443.63
2024-05-09T09:55:33.293Z,101431.50
2024-05-09T10:00:33.021Z,101424.70
2024-05-09T10:05:27.170Z,101419.60
2024-05-09T10:10:31.502Z,101424.77
2024-05-09T10:15:25.603Z,101424.70
2024-05-09T10:20:22.161Z,101421.95
2024-05-09T10:25:20.942Z,101421.12
2024-05-09T10:30:29.811Z,101415.75
2024-05-09T10:35:32.184Z,101408.05
2024-05-09T10:40:29.414Z,101411.80
2024-05-09T10:45:24.644Z,101412.16
2024-05-09T10:50:25.048Z,101402.94
2024-05-09T10:55:21.408Z,101397.46
2024-05-09T11:00:23.357Z,101396.06
2024-05-09T11:05:23.083Z,101390.36
2024-05-09T11:10:24.374Z,101388.55
2024-05-09T11:15:20.108Z,101377.90
2024-05-09T11:20:19.581Z,101378.30
2024-05-09T11:25:19.351Z,101369.64
2024-05-09T11:35:15.135Z,101359.21
2024-05-09T11:40:13.930Z,101354.41
2024-05-09T11:45:13.805Z,101357.58
2024-05-09T11:50:08.243Z,101351.08
2024-05-09T11:55:03.147Z,101348.38
2024-05-09T11:59:57.207Z,101345.92
2024-05-09T12:04:49.877Z,101340.02
2024-05-09T12:09:42.873Z,101337.89
2024-05-09T12:14:35.519Z,101333.54
2024-05-09T12:19:28.405Z,101325.67
2024-05-09T12:24:21.030Z,101322.91
2024-05-09T12:29:13.660Z,101317.11
2024-05-09T12:34:06.314Z,101315.41
2024-05-09T12:38:59.065Z,101311.73
2024-05-09T12:43:51.663Z,101306.81
2024-05-09T12:48:44.416Z,101304.73
2024-05-09T12:53:37.230Z,101300.95
2024-05-09T12:58:29.942Z,101298.11
2024-05-09T13:03:22.799Z,101294.16
2024-05-09T13:08:15.485Z,101282.78
2024-05-09T13:13:10.481Z,101283.33
2024-05-09T13:18:04.379Z,101282.92
2024-05-09T13:22:57.167Z,101276.13
2024-05-09T13:27:49.803Z,101271.87
2024-05-09T13:32:42.687Z,101269.38
2024-05-09T13:37:35.699Z,101263.23
2024-05-09T13:42:28.512Z,101254.23
2024-05-09T13:47:22.133Z,101252.10
2024-05-09T13:52:14.924Z,101251.73
2024-05-09T13:57:07.907Z,101242.65
2024-05-09T14:02:00.611Z,101236.09
2024-05-09T14:06:53.634Z,101232.19
2024-05-09T14:11:46.310Z,101225.96
2024-05-09T14:16:40.271Z,101220.69
2024-05-09T14:21:33.031Z,101216.40
2024-05-09T14:26:26.045Z,101210.67
2024-05-09T14:31:18.697Z,101211.71
2024-05-09T14:36:11.912Z,101212.73
2024-05-09T14:41:06.209Z,101199.95
2024-05-09T14:45:59.385Z,101194.66
2024-05-09T14:50:52.444Z,101189.16
2024-05-09T14:55:45.329Z,101184.67
2024-05-09T15:00:44.431Z,101180.16
2024-05-09T15:05:41.331Z,101176.36
2024-05-09T15:10:36.238Z,101172.90
2024-05-09T15:15:30.121Z,101166.14
2024-05-09T15:20:32.948Z,101164.31
2024-05-09T15:25:28.407Z,101162.34
2024-05-09T15:35:17.999Z,101151.50
2024-05-09T15:40:18.302Z,101149.20
2024-05-09T15:45:15.004Z,101152.70
2024-05-09T15:50:12.073Z,101151.53
2024-05-09T15:55:10.904Z,101150.02
2024-05-09T16:00:05.770Z,101142.44
2024-05-09T16:05:05.354Z,101131.86
2024-05-09T16:09:58.679Z,101125.21
2024-05-09T16:14:52.321Z,101122.46
2024-05-09T16:19:45.060Z,101126.13
2024-05-09T16:24:37.709Z,101128.08
2024-05-09T16:29:30.394Z,101129.05
2024-05-09T16:34:23.106Z,101122.00
2024-05-09T16:39:15.810Z,101116.16
2024-05-09T16:44:08.394Z,101118.90
2024-05-09T16:49:01.273Z,101118.45
2024-05-09T16:53:53.928Z,101115.31
2024-05-09T16:58:46.732Z,101114.31
2024-05-09T17:03:39.526Z,101118.41
2024-05-09T17:08:32.620Z,101118.55
2024-05-09T17:13:25.255Z,101115.62
2024-05-09T17:18:18.106Z,101116.30
2024-05-09T17:23:13.142Z,101122.95
2024-05-09T17:28:08.306Z,101125.19
2024-05-09T17:33:02.053Z,101124.34
2024-05-09T17:37:55.253Z,101125.78
2024-05-09T17:42:47.829Z,101131.38
2024-05-09T17:47:40.536Z,101132.16
2024-05-09T17:52:33.236Z,101131.83
2024-05-09T17:57:27.783Z,101133.25
2024-05-09T18:02:20.887Z,101129.21
2024-05-09T18:07:13.697Z,101132.66
2024-05-09T18:12:06.671Z,101140.45
2024-05-09T18:16:59.224Z,101141.07
2024-05-09T18:21:51.900Z,101143.08
2024-05-09T18:26:44.556Z,101147.31
2024-05-09T18:31:37.791Z,101157.08
2024-05-09T18:36:30.525Z,101165.42
2024-05-09T18:41:23.134Z,101168.08
2024-05-09T18:46:16.031Z,101175.55
2024-05-09T18:51:08.769Z,101184.42
2024-05-09T18:56:01.423Z,101183.86
2024-05-09T19:00:55.594Z,101178.77
2024-05-09T19:05:50.112Z,101184.81
2024-05-09T19:10:43.048Z,101183.50
2024-05-09T19:15:36.053Z,101189.65
2024-05-09T19:20:33.841Z,101190.63
2024-05-09T19:25:28.169Z,101190.82
2024-05-09T19:30:29.373Z,101193.79
2024-05-09T19:35:29.619Z,101195.92
2024-05-09T19:40:28.977Z,101196.03
2024-05-09T19:45:24.546Z,101196.14
2024-05-09T19:50:26.618Z,101196.52
2024-05-09T19:55:25.381Z,101195.91
2024-05-09T20:00:22.385Z,101196.23
2024-05-09T20:05:22.138Z,101198.65
2024-05-09T20:10:23.723Z,101197.89
2024-05-09T20:15:19.412Z,101203.77
2024-05-09T20:20:23.544Z,101204.48
2024-05-09T20:25:24.501Z,101210.48
2024-05-09T20:30:25.125Z,101209.96
2024-05-09T20:35:23.339Z,101208.64
2024-05-09T20:40:25.261Z,101205.39
2024-05-09T20:45:23.853Z,101211.14
2024-05-09T20:50:27.378Z,101211.59
2024-05-09T20:55:26.512Z,101208.56
2024-05-09T21:00:25.745Z,101205.83
2024-05-09T21:05:23.080Z,101204.23
2024-05-09T21:10:22.296Z,101205.16
2024-05-09T21:15:16.019Z,101201.30
2024-05-09T21:20:14.435Z,101199.35
2024-05-09T21:25:10.380Z,101195.94
2024-05-09T21:30:05.852Z,101189.24
2024-05-09T21:34:58.859Z,101193.02
2024-05-09T21:39:51.467Z,101197.89
2024-05-09T21:44:44.244Z,101199.54
2024-05-09T21:49:36.848Z,101199.98
2024-05-09T21:54:29.485Z,101200.05
2024-05-09T21:59:22.086Z,101199.46
2024-05-09T22:04:14.797Z,101199.48
2024-05-09T22:09:07.474Z,101194.96
2024-05-09T22:14:00.060Z,101194.05
2024-05-09T22:18:52.864Z,101193.60
2024-05-09T22:23:45.592Z,101193.11
2024-05-09T22:28:38.177Z,101193.70
2024-05-09T22:33:31.047Z,101191.08
2024-05-09T22:38:23.864Z,101192.59
2024-05-09T22:43:22.632Z,101184.77
2024-05-09T22:48:17.129Z,101190.91
2024-05-09T22:53:09.895Z,101186.48
2024-05-09T22:58:02.544Z,101185.59
2024-05-09T23:02:55.423Z,101183.86
2024-05-09T23:07:48.422Z,101186.85
2024-05-09T23:12:41.007Z,101183.81
2024-05-09T23:17:33.773Z,101179.63
2024-05-09T23:22:26.485Z,101179.45
2024-05-09T23:27:19.175Z,101175.67
2024-05-09T23:32:11.810Z,101171.28
2024-05-09T23:37:04.638Z,101164.99
2024-05-09T23:41:57.517Z,101160.55
2024-05-09T23:46:50.239Z,101158.42
2024-05-09T23:51:42.866Z,101157.98
2024-05-09T23:56:35.518Z,101160.45
